Time;durP1;ratioP1;P1;durP2;ratioP2;P2;SDS_P1;SDS_P2;PMS_P1;PMS_P2;Temp;Humidity;BMP_temperature;BMP_pressure;BME280_temperature;BME280_humidity;BME280_pressure;Samples;Min_cycle;Max_cycle;Signal;HPM_P1;HPM_P2
2021/12/03 00:00:17;;;;;;;3.85;1.65;;;;;;;;;;5098483;28;20039;-66
2021/12/03 00:02:43;;;;;;;8.73;1.70;;;;;;;;;;5113836;28;20052;-65
2021/12/03 00:05:09;;;;;;;10.95;2.25;;;;;;;;;;5104521;28;20092;-67
2021/12/03 00:07:39;;;;;;;5.68;2.15;;;;;;;;;;5095993;28;20051;-66
2021/12/03 00:10:07;;;;;;;8.02;2.10;;;;;;;;;;5088319;28;20044;-66
2021/12/03 00:12:33;;;;;;;8.70;2.85;;;;;;;;;;5115682;28;20060;-66
2021/12/03 00:14:59;;;;;;;12.80;4.30;;;;;;;;;;5115515;28;20088;-66
2021/12/03 00:17:25;;;;;;;10.35;5.60;;;;;;;;;;5115954;28;20488;-65
2021/12/03 00:19:51;;;;;;;10.05;5.68;;;;;;;;;;5109799;28;20039;-66
2021/12/03 00:22:17;;;;;;;14.43;5.47;;;;;;;;;;5095795;28;20032;-65
2021/12/03 00:24:43;;;;;;;12.23;5.85;;;;;;;;;;5094508;28;20169;-66
2021/12/03 00:27:09;;;;;;;18.67;6.78;;;;;;;;;;5095956;28;20043;-66
2021/12/03 00:29:35;;;;;;;16.85;8.10;;;;;;;;;;5095098;28;20134;-66
2021/12/03 00:32:01;;;;;;;17.25;7.43;;;;;;;;;;5096115;28;20134;-65
2021/12/03 00:34:27;;;;;;;24.48;9.88;;;;;;;;;;5095215;28;20079;-66
2021/12/03 00:36:54;;;;;;;26.60;11.18;;;;;;;;;;5094887;28;20476;-66
2021/12/03 00:39:20;;;;;;;27.27;12.77;;;;;;;;;;5112833;28;20075;-66
2021/12/03 00:41:49;;;;;;;30.15;14.60;;;;;;;;;;5112725;28;20077;-66
2021/12/03 00:44:18;;;;;;;25.33;11.68;;;;;;;;;;5113778;28;20043;-66
2021/12/03 00:46:44;;;;;;;24.60;11.73;;;;;;;;;;5096633;28;20233;-65
2021/12/03 00:49:10;;;;;;;24.65;9.43;;;;;;;;;;5079480;28;20048;-65
2021/12/03 00:51:36;;;;;;;22.35;10.70;;;;;;;;;;5096381;28;20070;-65
2021/12/03 00:54:02;;;;;;;23.30;9.45;;;;;;;;;;5095410;28;20102;-65
2021/12/03 00:56:28;;;;;;;21.48;8.50;;;;;;;;;;5080415;28;20418;-65
2021/12/03 00:58:54;;;;;;;15.35;7.53;;;;;;;;;;5095367;28;20051;-65
2021/12/03 01:01:20;;;;;;;13.55;6.32;;;;;;;;;;5095994;28;20373;-65
2021/12/03 01:03:46;;;;;;;16.38;6.80;;;;;;;;;;5093961;28;20091;-66
2021/12/03 01:06:12;;;;;;;14.50;5.10;;;;;;;;;;5112916;28;20047;-66
2021/12/03 01:08:38;;;;;;;13.95;4.65;;;;;;;;;;5115323;28;20051;-66
2021/12/03 01:11:05;;;;;;;10.57;3.83;;;;;;;;;;5097748;28;20040;-67
2021/12/03 01:13:31;;;;;;;13.55;5.68;;;;;;;;;;5114019;28;20132;-67
2021/12/03 01:15:57;;;;;;;17.25;5.68;;;;;;;;;;5096819;28;20476;-66
2021/12/03 01:18:23;;;;;;;11.77;5.68;;;;;;;;;;5094670;28;20074;-66
2021/12/03 01:20:49;;;;;;;14.07;5.40;;;;;;;;;;5093584;28;20040;-66
2021/12/03 01:23:15;;;;;;;15.15;7.30;;;;;;;;;;5094788;28;20051;-67
2021/12/03 01:25:41;;;;;;;16.17;7.53;;;;;;;;;;5104345;28;20040;-66
2021/12/03 01:28:08;;;;;;;21.02;10.88;;;;;;;;;;5095745;28;20036;-67
2021/12/03 01:30:34;;;;;;;21.77;10.45;;;;;;;;;;5107222;28;20043;-66
2021/12/03 01:33:01;;;;;;;20.33;11.27;;;;;;;;;;5114767;28;20040;-67
2021/12/03 01:35:28;;;;;;;26.30;12.25;;;;;;;;;;5114186;28;20043;-66
2021/12/03 01:37:55;;;;;;;23.73;12.13;;;;;;;;;;5097994;28;20079;-66
2021/12/03 01:40:22;;;;;;;27.70;14.77;;;;;;;;;;5110745;28;20035;-66
2021/12/03 01:42:48;;;;;;;28.15;13.95;;;;;;;;;;5107108;28;20047;-66
2021/12/03 01:45:16;;;;;;;28.27;16.13;;;;;;;;;;5090175;28;20035;-66
2021/12/03 01:47:43;;;;;;;32.13;15.48;;;;;;;;;;5115051;28;20169;-66
2021/12/03 01:50:10;;;;;;;33.40;17.90;;;;;;;;;;5113822;28;20036;-66
2021/12/03 01:52:36;;;;;;;31.95;19.05;;;;;;;;;;5115649;28;20113;-65
2021/12/03 01:55:02;;;;;;;39.58;19.50;;;;;;;;;;5109012;28;20069;-65
2021/12/03 01:57:28;;;;;;;35.17;19.23;;;;;;;;;;5081029;28;20040;-66
2021/12/03 01:59:54;;;;;;;36.92;21.30;;;;;;;;;;5093848;28;20128;-66
2021/12/03 02:02:21;;;;;;;37.33;21.55;;;;;;;;;;5090668;28;20177;-66
2021/12/03 02:04:47;;;;;;;33.72;20.25;;;;;;;;;;5092870;28;20439;-66
2021/12/03 02:07:14;;;;;;;39.38;21.63;;;;;;;;;;5094320;28;20055;-65
2021/12/03 02:09:40;;;;;;;40.67;24.08;;;;;;;;;;5093120;28;20491;-66
2021/12/03 02:12:06;;;;;;;42.33;22.33;;;;;;;;;;5077058;28;20048;-65
2021/12/03 02:14:32;;;;;;;35.97;22.10;;;;;;;;;;5095851;28;20438;-66
2021/12/03 02:16:58;;;;;;;35.80;22.98;;;;;;;;;;5107183;28;20062;-66
2021/12/03 02:19:24;;;;;;;45.72;22.88;;;;;;;;;;5113096;28;20468;-66
2021/12/03 02:21:50;;;;;;;38.97;21.75;;;;;;;;;;5113641;28;20043;-66
2021/12/03 02:24:21;;;;;;;34.72;20.98;;;;;;;;;;5112882;28;20039;-66
2021/12/03 02:26:46;;;;;;;;;;;1.80;99.90;;;;;;5084057;28;20044;-66
2021/12/03 02:29:12;;;;;;;36.58;18.73;;;;;;;;;;5108950;28;19915;-66
2021/12/03 02:31:39;;;;;;;34.13;21.17;;;;;;;;;;5113958;28;20039;-65
2021/12/03 02:34:05;;;;;;;32.13;19.45;;;;;;;;;;5095681;28;20115;-65
2021/12/03 02:36:31;;;;;;;28.77;17.50;;;;;;;;;;5099352;28;20464;-66
2021/12/03 02:38:57;;;;;;;35.20;18.75;;;;;;;;;;5093090;28;20047;-66
2021/12/03 02:41:23;;;;;;;30.30;16.38;;;;;;;;;;5087359;28;20040;-65
2021/12/03 02:43:49;;;;;;;33.28;18.50;;;;;;;;;;5112304;28;20487;-66
2021/12/03 02:46:15;;;;;;;30.23;18.13;;;;;;;;;;5112697;28;20047;-65
2021/12/03 02:48:42;;;;;;;29.45;17.25;;;;;;;;;;5110386;28;20132;-65
2021/12/03 02:51:08;;;;;;;32.88;17.10;;;;;;;;;;5108685;28;20035;-67
2021/12/03 02:53:35;;;;;;;26.10;16.60;;;;;;;;;;5111175;28;20052;-65
2021/12/03 02:56:01;;;;;;;27.45;15.38;;;;;;;;;;5077146;28;20135;-66
2021/12/03 02:58:28;;;;;;;21.23;13.90;;;;;;;;;;5105689;28;20050;-65
2021/12/03 03:00:54;;;;;;;25.13;16.35;;;;;;;;;;5098168;28;20106;-66
2021/12/03 03:03:21;;;;;;;24.38;14.43;;;;;;;;;;5104673;28;20375;-66
2021/12/03 03:05:53;;;;;;;20.15;13.13;;;;;;;;;;5093639;28;20092;-66
2021/12/03 03:08:19;;;;;;;22.65;12.85;;;;;;;;;;5113557;28;20039;-65
2021/12/03 03:10:45;;;;;;;23.00;14.73;;;;;;;;;;5095821;28;20086;-66
2021/12/03 03:13:12;;;;;;;25.25;14.00;;;;;;;;;;5113085;28;20072;-66
2021/12/03 03:15:39;;;;;;;21.05;13.73;;;;;;;;;;5111029;28;20047;-66
2021/12/03 03:18:24;;;;;;;22.70;14.25;;;;;;;;;;5092653;28;20058;-65
2021/12/03 03:20:51;;;;;;;23.85;14.07;;;;;;;;;;5076345;28;20127;-66
2021/12/03 03:23:17;;;;;;;27.60;13.20;;;;;;;;;;5082677;28;20043;-65
2021/12/03 03:25:44;;;;;;;22.25;13.48;;;;;;;;;;5099513;28;20048;-65
2021/12/03 03:28:11;;;;;;;22.52;14.68;;;;;;;;;;5112876;28;20073;-66
2021/12/03 03:30:38;;;;;;;22.77;13.23;;;;;;;;;;5076815;28;20040;-66
2021/12/03 03:33:04;;;;;;;25.00;14.95;;;;;;;;;;5091523;28;20044;-66
2021/12/03 03:35:31;;;;;;;24.35;15.02;;;;;;;;;;5080555;28;20051;-65
2021/12/03 03:37:57;;;;;;;23.98;14.50;;;;;;;;;;5079990;28;20051;-65
2021/12/03 03:40:23;;;;;;;23.95;15.23;;;;;;;;;;5116837;28;20071;-65
2021/12/03 03:42:49;;;;;;;25.20;14.27;;;;;;;;;;5115569;28;20706;-65
2021/12/03 03:45:17;;;;;;;25.90;16.10;;;;;;;;;;5101867;28;20047;-65
2021/12/03 03:47:43;;;;;;;23.80;15.68;;;;;;;;;;5113622;28;20039;-65
2021/12/03 03:50:10;;;;;;;27.52;14.85;;;;;;;;;;5103830;28;20356;-66
2021/12/03 03:52:39;;;;;;;22.08;13.55;;;;;;;;;;5098563;28;20039;-64
2021/12/03 03:55:05;;;;;;;21.45;12.75;;;;;;;;;;5101723;28;20058;-64
2021/12/03 03:57:31;;;;;;;29.98;13.02;;;;;;;;;;5117921;28;20039;-65
2021/12/03 03:59:57;;;;;;;24.58;14.45;;;;;;;;;;5108734;28;20039;-65
2021/12/03 04:02:23;;;;;;;24.70;14.60;;;;;;;;;;5116187;28;20170;-64
2021/12/03 04:04:49;;;;;;;22.67;14.57;;;;;;;;;;5089183;28;20044;-65
2021/12/03 04:07:15;;;;;;;24.02;15.93;;;;;;;;;;5113328;28;20044;-64
2021/12/03 04:09:41;;;;;;;22.42;13.13;;;;;;;;;;5097264;28;20483;-65
2021/12/03 04:12:08;;;;;;;27.42;16.38;;;;;;;;;;5096225;28;20040;-64
2021/12/03 04:14:34;;;;;;;27.15;17.05;;;;;;;;;;5095132;28;20376;-64
2021/12/03 04:17:00;;;;;;;25.73;14.90;;;;;;;;;;5096726;28;20032;-63
2021/12/03 04:19:26;;;;;;;27.08;16.02;;;;;;;;;;5113055;28;20051;-64
2021/12/03 04:21:52;;;;;;;29.15;17.25;;;;;;;;;;5114906;28;20040;-64
2021/12/03 04:24:18;;;;;;;34.53;19.05;;;;;;;;;;5106583;28;20044;-64
2021/12/03 04:26:44;;;;;;;31.05;17.85;;;;;;;;;;5103295;28;20040;-64
2021/12/03 04:29:10;;;;;;;29.05;18.08;;;;;;;;;;5095129;28;20050;-65
2021/12/03 04:31:36;;;;;;;28.48;18.67;;;;;;;;;;5102183;28;20040;-64
2021/12/03 04:34:02;;;;;;;26.52;18.02;;;;;;;;;;5103183;28;20375;-64
2021/12/03 04:36:28;;;;;;;31.08;18.85;;;;;;;;;;5094137;28;20040;-64
2021/12/03 04:38:57;;;;;;;31.10;18.85;;;;;;;;;;5080031;28;20052;-64
2021/12/03 04:41:23;;;;;;;29.95;18.55;;;;;;;;;;5106657;28;20481;-64
2021/12/03 04:43:49;;;;;;;30.38;19.38;;;;;;;;;;5114827;28;20044;-64
2021/12/03 04:46:15;;;;;;;33.22;19.92;;;;;;;;;;5115991;28;20054;-64
2021/12/03 04:48:41;;;;;;;31.25;20.05;;;;;;;;;;5110217;28;20115;-65
2021/12/03 04:51:07;;;;;;;27.23;18.98;;;;;;;;;;5104082;28;20040;-64
2021/12/03 04:53:33;;;;;;;30.63;20.70;;;;;;;;;;5098787;28;20043;-64
2021/12/03 04:55:59;;;;;;;31.00;18.17;;;;;;;;;;5113466;28;20131;-64
2021/12/03 04:58:26;;;;;;;27.25;18.30;;;;;;;;;;5106898;28;20052;-64
2021/12/03 05:00:53;;;;;;;25.30;16.63;;;;;;;;;;5106035;28;20036;-64
2021/12/03 05:03:22;;;;;;;28.30;17.95;;;;;;;;;;5115721;28;20055;-63
2021/12/03 05:05:53;;;;;;;33.53;15.88;;;;;;;;;;5112590;28;20119;-64
2021/12/03 05:08:19;;;;;;;27.85;17.88;;;;;;;;;;5115381;28;20088;-64
2021/12/03 05:10:45;;;;;;;27.02;16.13;;;;;;;;;;5115823;28;20116;-64
2021/12/03 05:13:14;;;;;;;45.60;19.13;;;;;;;;;;5116503;28;20039;-64
2021/12/03 05:15:40;;;;;;;21.40;13.65;;;;;;;;;;5116442;28;20035;-64
2021/12/03 05:18:07;;;;;;;30.33;17.35;;;;;;;;;;5089874;28;20047;-64
2021/12/03 05:20:33;;;;;;;30.05;16.52;;;;;;;;;;5108819;28;20044;-64
2021/12/03 05:22:59;;;;;;;19.33;11.63;;;;;;;;;;5115575;28;20437;-64
2021/12/03 05:25:26;;;;;;;20.75;14.45;;;;;;;;;;5103897;28;20040;-64
2021/12/03 05:27:52;;;;;;;22.85;13.68;;;;;;;;;;5094653;28;20036;-64
2021/12/03 05:30:19;;;;;;;22.92;15.70;;;;;;;;;;5108499;28;20042;-64
2021/12/03 05:32:45;;;;;;;28.38;15.68;;;;;;;;;;5104088;28;20047;-64
2021/12/03 05:35:12;;;;;;;24.20;14.25;;;;;;;;;;5099407;28;20357;-64
2021/12/03 05:37:38;;;;;;;28.00;14.25;;;;;;;;;;5109255;28;20047;-63
2021/12/03 05:40:05;;;;;;;27.27;15.02;;;;;;;;;;5106761;28;20376;-64
2021/12/03 05:42:31;;;;;;;23.85;13.50;;;;;;;;;;5115453;28;20047;-64
2021/12/03 05:44:58;;;;;;;19.00;11.75;;;;;;;;;;5104475;28;20044;-64
2021/12/03 05:47:24;;;;;;;23.38;13.88;;;;;;;;;;5116297;28;20047;-64
2021/12/03 05:49:50;;;;;;;19.10;11.80;;;;;;;;;;5114757;28;20096;-64
2021/12/03 05:52:17;;;;;;;18.17;11.55;;;;;;;;;;5115729;28;20130;-64
2021/12/03 05:54:43;;;;;;;21.38;11.07;;;;;;;;;;5096355;28;20039;-63
2021/12/03 05:57:09;;;;;;;24.73;12.32;;;;;;;;;;5114357;28;20039;-64
2021/12/03 05:59:35;;;;;;;20.27;12.18;;;;;;;;;;5112209;28;20040;-64
2021/12/03 06:02:01;;;;;;;17.85;11.20;;;;;;;;;;5114999;28;20520;-64
2021/12/03 06:04:29;;;;;;;19.63;9.38;;;;;;;;;;5112920;28;20078;-64
2021/12/03 06:06:55;;;;;;;18.55;11.13;;;;;;;;;;5113267;28;20384;-64
2021/12/03 06:09:21;;;;;;;18.17;11.10;;;;;;;;;;5114017;28;20039;-64
2021/12/03 06:11:47;;;;;;;16.85;9.45;;;;;;;;;;5097606;28;20368;-64
2021/12/03 06:14:13;;;;;;;24.58;11.65;;;;;;;;;;5108925;28;20477;-65
2021/12/03 06:16:39;;;;;;;23.38;12.15;;;;;;;;;;5112556;28;20043;-65
2021/12/03 06:19:05;;;;;;;19.60;9.63;;;;;;;;;;5099589;28;20044;-65
2021/12/03 06:21:31;;;;;;;17.35;8.48;;;;;;;;;;5099501;28;20054;-64
2021/12/03 06:23:57;;;;;;;15.13;9.07;;;;;;;;;;5107978;28;20044;-66
2021/12/03 06:26:23;;;;;;;15.70;8.57;;;;;;;;;;5105450;28;20093;-66
2021/12/03 06:28:49;;;;;;;14.90;8.25;;;;;;;;;;5113628;28;20043;-65
2021/12/03 06:31:16;;;;;;;14.88;7.82;;;;;;;;;;5108100;28;20306;-65
2021/12/03 06:33:42;;;;;;;18.42;8.90;;;;;;;;;;5114129;28;20367;-64
2021/12/03 06:36:08;;;;;;;17.42;7.00;;;;;;;;;;5106396;28;20123;-65
2021/12/03 06:38:34;;;;;;;11.02;7.05;;;;;;;;;;5106798;28;20468;-64
2021/12/03 06:41:00;;;;;;;13.88;6.45;;;;;;;;;;5112846;28;20126;-64
2021/12/03 06:43:26;;;;;;;11.25;6.70;;;;;;;;;;5094184;28;20523;-65
2021/12/03 06:45:52;;;;;;;13.38;6.20;;;;;;;;;;5096107;28;20039;-66
2021/12/03 06:48:18;;;;;;;10.35;5.35;;;;;;;;;;5084615;28;20048;-66
2021/12/03 06:50:45;;;;;;;12.05;5.75;;;;;;;;;;5092973;28;20032;-66
2021/12/03 06:53:14;;;;;;;9.82;4.75;;;;;;;;;;5093238;28;20083;-66
2021/12/03 06:55:48;;;;;;;15.30;5.32;;;;;;;;;;5093222;28;20049;-66
2021/12/03 06:58:15;;;;;;;14.30;5.53;;;;;;;;;;5100209;28;20048;-66
2021/12/03 07:00:41;;;;;;;13.68;5.35;;;;;;;;;;5113780;28;20130;-66
2021/12/03 07:03:07;;;;;;;10.40;5.28;;;;;;;;;;5095527;28;20047;-67
2021/12/03 07:05:33;;;;;;;9.23;4.63;;;;;;;;;;5112172;28;20044;-66
2021/12/03 07:07:59;;;;;;;10.35;4.55;;;;;;;;;;5114084;28;20092;-66
2021/12/03 07:10:25;;;;;;;16.42;5.00;;;;;;;;;;5108312;28;20532;-66
2021/12/03 07:12:51;;;;;;;14.68;5.65;;;;;;;;;;5091944;28;20429;-66
2021/12/03 07:15:17;;;;;;;8.40;4.05;;;;;;;;;;5098749;28;20074;-66
2021/12/03 07:17:45;;;;;;;9.68;5.95;;;;;;;;;;5108614;28;20031;-66
2021/12/03 07:20:11;;;;;;;12.35;4.65;;;;;;;;;;5112762;28;20082;-66
2021/12/03 07:22:37;;;;;;;19.15;5.28;;;;;;;;;;5095154;28;20118;-66
2021/12/03 07:25:04;;;;;;;13.35;5.03;;;;;;;;;;5109193;28;20047;-66
2021/12/03 07:27:30;;;;;;;11.23;4.53;;;;;;;;;;5108053;28;20134;-65
2021/12/03 07:29:56;;;;;;;18.58;5.25;;;;;;;;;;5092466;28;20044;-66
2021/12/03 07:32:23;;;;;;;9.15;4.75;;;;;;;;;;5095028;28;20040;-67
2021/12/03 07:34:49;;;;;;;11.93;4.97;;;;;;;;;;5092270;28;20118;-66
2021/12/03 07:37:15;;;;;;;8.75;4.88;;;;;;;;;;5105405;28;20043;-66
2021/12/03 07:39:44;;;;;;;8.95;3.78;;;;;;;;;;5113205;28;20035;-68
2021/12/03 07:42:10;;;;;;;11.35;4.82;;;;;;;;;;5112782;28;20487;-67
2021/12/03 07:44:36;;;;;;;14.45;5.18;;;;;;;;;;5098271;28;20071;-67
2021/12/03 07:47:02;;;;;;;7.88;4.35;;;;;;;;;;5092301;28;20096;-67
2021/12/03 07:49:28;;;;;;;12.35;5.22;;;;;;;;;;5094142;28;20044;-67
2021/12/03 07:51:55;;;;;;;13.18;5.72;;;;;;;;;;5092607;28;20032;-68
2021/12/03 07:54:21;;;;;;;10.68;4.80;;;;;;;;;;5099950;28;20092;-66
2021/12/03 07:56:47;;;;;;;19.00;5.10;;;;;;;;;;5083653;28;20047;-68
2021/12/03 07:59:13;;;;;;;19.85;6.85;;;;;;;;;;5101033;28;20036;-67
2021/12/03 08:01:43;;;;;;;13.60;7.15;;;;;;;;;;5113186;28;20047;-67
2021/12/03 08:04:10;;;;;;;16.27;7.25;;;;;;;;;;5107663;28;20073;-67
2021/12/03 08:06:39;;;;;;;16.88;8.32;;;;;;;;;;5111264;28;20050;-68
2021/12/03 08:09:05;;;;;;;20.40;7.85;;;;;;;;;;5106074;28;20115;-68
2021/12/03 08:11:31;;;;;;;16.75;6.75;;;;;;;;;;5093351;28;20040;-68
2021/12/03 08:13:57;;;;;;;21.02;9.05;;;;;;;;;;5108868;28;20511;-68
2021/12/03 08:16:23;;;;;;;22.15;10.75;;;;;;;;;;5075689;28;20032;-69
2021/12/03 08:18:49;;;;;;;20.42;10.13;;;;;;;;;;5077754;28;20379;-68
2021/12/03 08:21:15;;;;;;;30.67;10.88;;;;;;;;;;5104238;28;20375;-68
2021/12/03 08:23:41;;;;;;;22.35;9.82;;;;;;;;;;5113015;28;20126;-67
2021/12/03 08:26:07;;;;;;;22.45;10.15;;;;;;;;;;5114998;27;20073;-67
2021/12/03 08:28:34;;;;;;;21.25;9.80;;;;;;;;;;5116373;28;20079;-67
2021/12/03 08:31:00;;;;;;;30.08;11.95;;;;;;;;;;5098917;28;20050;-67
2021/12/03 08:33:27;;;;;;;25.25;10.13;;;;;;;;;;5116360;28;20066;-68
2021/12/03 08:35:53;;;;;;;26.67;11.20;;;;;;;;;;5114225;27;20039;-68
2021/12/03 08:38:19;;;;;;;20.90;10.68;;;;;;;;;;5100801;28;20119;-66
2021/12/03 08:40:45;;;;;;;27.55;11.10;;;;;;;;;;5098538;28;20072;-67
2021/12/03 08:43:11;;;;;;;25.23;10.77;;;;;;;;;;5122729;27;20071;-67
2021/12/03 08:45:38;;;;;;;21.17;10.15;;;;;;;;;;5116641;27;20035;-66
2021/12/03 08:48:05;;;;;;;22.42;7.93;;;;;;;;;;5104418;28;20046;-66
2021/12/03 08:50:35;;;;;;;21.35;10.40;;;;;;;;;;5116752;27;20491;-66
2021/12/03 08:55:48;;;;;;;25.30;10.73;;;;;;;;;;5063858;28;20138;-67
2021/12/03 08:58:16;;;;;;;25.23;10.40;;;;;;;;;;5112744;27;20043;-67
2021/12/03 09:00:43;;;;;;;13.38;5.95;;;;;;;;;;5126126;27;20167;-67
2021/12/03 09:03:09;;;;;;;23.65;9.68;;;;;;;;;;5136732;27;20054;-66
2021/12/03 09:05:37;;;;;;;17.98;8.68;;;;;;;;;;5135590;27;20437;-68
2021/12/03 09:08:03;;;;;;;25.83;8.70;;;;;;;;;;5125878;27;20046;-67
2021/12/03 09:10:29;;;;;;;20.35;7.55;;;;;;;;;;5116108;28;20039;-66
2021/12/03 09:12:55;;;;;;;23.48;9.18;;;;;;;;;;5116988;27;20127;-67
2021/12/03 09:15:29;;;;;;;20.67;9.45;;;;;;;;;;5095387;28;20062;-66
2021/12/03 09:22:52;;;;;;;21.75;8.20;;;;;;;;;;5114871;28;20051;-68
2021/12/03 09:25:23;;;;;;;8.75;4.88;;;;;;;;;;5116160;28;20036;-65
2021/12/03 09:27:50;;;;;;;20.75;8.20;;;;;;;;;;5095522;28;20075;-67
2021/12/03 09:30:16;;;;;;;15.90;6.75;;;;;;;;;;5114315;28;20138;-66
2021/12/03 09:32:47;;;;;;;16.88;5.32;;;;;;;;;;5115120;28;20500;-66
2021/12/03 09:35:13;;;;;;;17.42;4.57;;;;;;;;;;5113361;28;20480;-66
2021/12/03 09:37:39;;;;;;;19.45;7.65;;;;;;;;;;5096864;27;20459;-67
2021/12/03 09:40:08;;;;;;;15.23;6.35;;;;;;;;;;5120886;27;20039;-67
2021/12/03 09:42:37;;;;;;;16.77;5.78;;;;;;;;;;5081023;28;20044;-67
2021/12/03 09:45:04;;;;;;;12.65;3.92;;;;;;;;;;5123324;27;20087;-67
2021/12/03 09:47:31;;;;;;;20.70;5.75;;;;;;;;;;5133577;27;20077;-66
2021/12/03 09:49:59;;;;;;;16.38;4.55;;;;;;;;;;5132246;27;20043;-67
2021/12/03 09:54:56;;;;;;;14.10;6.03;;;;;;;;;;5102319;28;20043;-67
2021/12/03 09:57:46;;;;;;;23.50;7.47;;;;;;;;;;5100356;28;20067;-67
2021/12/03 10:00:35;;;;;;;18.98;5.28;;;;;;;;;;5111494;28;20039;-67
2021/12/03 10:03:10;;;;;;;16.95;5.30;;;;;;;;;;5110918;28;20051;-67
2021/12/03 10:14:00;;;;;;;12.68;3.70;;;;;;;;;;5112834;28;20044;-67
2021/12/03 10:16:41;;;;;;;11.95;3.58;;;;;;;;;;5112781;28;20104;-67
2021/12/03 10:19:27;;;;;;;13.45;4.38;;;;;;;;;;5112476;28;20044;-65
2021/12/03 10:22:12;;;;;;;12.93;3.92;;;;;;;;;;5095122;27;20483;-65
2021/12/03 10:32:55;;;;;;;8.48;3.38;;;;;;;;;;5070593;28;20055;-65
2021/12/03 10:43:55;;;;;;;15.73;4.13;;;;;;;;;;4974559;28;20042;-65
2021/12/03 10:49:02;;;;;;;11.60;3.60;;;;;;;;;;4955915;28;20268;-65
2021/12/03 10:51:42;;;;;;;12.52;3.72;;;;;;;;;;4955930;28;20070;-65
2021/12/03 10:57:01;;;;;;;14.50;5.05;;;;;;;;;;4970424;28;20185;-65
2021/12/03 11:13:15;;;;;;;14.45;3.65;;;;;;;;;;5111139;28;20035;-64
2021/12/03 11:27:25;;;;;;;12.93;4.07;;;;;;;;;;5111026;28;20051;-65
2021/12/03 11:29:52;;;;;;;9.05;2.88;;;;;;;;;;5111521;28;20047;-65
2021/12/03 11:35:55;;;;;;;18.55;4.60;;;;;;;;;;5111226;28;20066;-66
2021/12/03 12:08:02;;;;;;;15.52;3.40;;;;;;;;;;5103660;28;20052;-66
2021/12/03 12:10:40;;;;;;;15.88;4.70;;;;;;;;;;5122594;27;20047;-65
2021/12/03 12:14:28;;;;;;;9.77;3.78;;;;;;;;;;5121260;27;20051;-65
2021/12/03 12:41:09;;;;;;;11.73;4.65;;;;;;;;;;5114867;28;20075;-65
2021/12/03 12:55:37;;;;;;;6.25;3.40;;;;;;;;;;5103329;28;20044;-64
2021/12/03 13:44:36;;;;;;;9.40;2.85;;;;;;;;;;5113005;28;20108;-65
2021/12/03 13:57:58;;;;;;;8.63;3.20;;;;;;;;;;5034821;28;20040;-65
2021/12/03 14:36:12;;;;;;;7.70;3.17;;;;;;;;;;5113692;28;20079;-65
2021/12/03 14:43:02;;;;;;;8.27;2.75;;;;;;;;;;5100156;28;20050;-65
2021/12/03 14:48:21;;;;;;;7.30;3.35;;;;;;;;;;5113277;28;20047;-65
2021/12/03 14:55:52;;;;;;;7.00;3.45;;;;;;;;;;5113377;28;20054;-65
2021/12/03 14:58:21;;;;;;;9.70;3.33;;;;;;;;;;5096585;28;20535;-66
2021/12/03 15:00:56;;;;;;;9.50;2.95;;;;;;;;;;5109184;28;20116;-65
2021/12/03 15:06:39;;;;;;;4.97;3.13;;;;;;;;;;5112614;28;20078;-65
2021/12/03 15:30:09;;;;;;;6.70;4.50;;;;;;;;;;5110469;28;20043;-66
2021/12/03 15:40:42;;;;;;;8.05;5.65;;;;;;;;;;5118063;28;20043;-65
2021/12/03 16:18:39;;;;;;;18.70;13.27;;;;;;;;;;5058361;28;20448;-64
2021/12/03 16:52:32;;;;;;;23.35;17.10;;;;;;;;;;5115060;28;20044;-64
2021/12/03 16:55:00;;;;;;;19.50;12.15;;;;;;;;;;5115992;28;20490;-66
2021/12/03 16:57:34;;;;;;;27.00;17.52;;;;;;;;;;5116713;28;20043;-65
2021/12/03 17:00:13;;;;;;;30.00;20.60;;;;;;;;;;5098218;28;20036;-65
2021/12/03 17:02:46;;;;;;;28.83;15.60;;;;;;;;;;5115648;28;20155;-65
2021/12/03 17:08:19;;;;;;;32.58;19.77;;;;;;;;;;5120150;27;20075;-65
2021/12/03 17:56:46;;;;;;;48.58;25.92;;;;;;;;;;5109228;28;20051;-63
2021/12/03 18:04:09;;;;;;;38.28;24.10;;;;;;;;;;5113686;28;20051;-64
2021/12/03 18:50:50;;;;;;;56.30;29.25;;;;;;;;;;5051473;28;20052;-65
2021/12/03 18:55:52;;;;;;;60.30;30.50;;;;;;;;;;5020925;28;20052;-65
2021/12/03 18:58:19;;;;;;;61.88;32.08;;;;;;;;;;5031133;28;20099;-65
2021/12/03 19:00:46;;;;;;;54.72;29.77;;;;;;;;;;5030121;28;20092;-65
2021/12/03 19:03:26;;;;;;;53.03;27.13;;;;;;;;;;5008784;28;20059;-65
2021/12/03 19:08:45;;;;;;;59.03;32.08;;;;;;;;;;5015554;28;20049;-64
2021/12/03 19:11:27;;;;;;;66.13;33.63;;;;;;;;;;5018796;28;20504;-64
2021/12/03 19:13:53;;;;;;;57.33;28.23;;;;;;;;;;5035031;28;20103;-65
2021/12/03 19:16:25;;;;;;;61.28;30.35;;;;;;;;;;5035591;28;20440;-65
2021/12/03 19:18:53;;;;;;;58.38;27.20;;;;;;;;;;5034098;28;20049;-64
2021/12/03 19:21:25;;;;;;;48.90;27.08;;;;;;;;;;5033948;28;20119;-66
2021/12/03 19:23:57;;;;;;;54.28;31.17;;;;;;;;;;5018543;28;20055;-64
2021/12/03 19:26:23;;;;;;;63.53;31.50;;;;;;;;;;5084753;28;20079;-64
2021/12/03 19:28:49;;;;;;;61.47;30.75;;;;;;;;;;5087119;28;20052;-64
2021/12/03 19:31:16;;;;;;;59.75;31.27;;;;;;;;;;5093860;28;20066;-64
2021/12/03 19:33:43;;;;;;;58.85;30.85;;;;;;;;;;5075114;28;20040;-64
2021/12/03 19:36:10;;;;;;;49.40;26.67;;;;;;;;;;5092804;28;20112;-64
2021/12/03 19:38:38;;;;;;;68.70;31.77;;;;;;;;;;5109129;28;20044;-65
2021/12/03 19:41:13;;;;;;;56.10;28.33;;;;;;;;;;5109424;28;20480;-63
2021/12/03 19:43:59;;;;;;;55.92;28.17;;;;;;;;;;5099943;28;20051;-64
2021/12/03 19:46:32;;;;;;;48.28;24.65;;;;;;;;;;5075991;28;20040;-65
2021/12/03 19:49:07;;;;;;;63.08;30.05;;;;;;;;;;5113765;28;20095;-64
2021/12/03 19:51:36;;;;;;;65.72;31.17;;;;;;;;;;5123337;27;20040;-64
2021/12/03 19:54:04;;;;;;;49.33;26.60;;;;;;;;;;5113018;28;20055;-64
2021/12/03 19:56:33;;;;;;;56.92;26.48;;;;;;;;;;5105705;28;20040;-64
2021/12/03 19:59:00;;;;;;;57.47;30.63;;;;;;;;;;5092271;28;20126;-63
2021/12/03 20:01:29;;;;;;;60.88;28.20;;;;;;;;;;5092963;28;20116;-64
2021/12/03 20:03:56;;;;;;;67.10;32.20;;;;;;;;;;5109650;28;20048;-64
2021/12/03 20:06:22;;;;;;;57.72;30.00;;;;;;;;;;5112308;28;20549;-63
2021/12/03 20:08:52;;;;;;;51.80;28.52;;;;;;;;;;5112854;28;20078;-64
2021/12/03 20:11:18;;;;;;;55.40;29.58;;;;;;;;;;5113831;28;20051;-64
2021/12/03 20:13:49;;;;;;;54.50;29.42;;;;;;;;;;5101364;28;20436;-63
2021/12/03 20:16:28;;;;;;;42.33;23.10;;;;;;;;;;5092544;28;20080;-64
2021/12/03 20:19:00;;;;;;;54.42;29.60;;;;;;;;;;5093186;28;20031;-63
2021/12/03 20:21:28;;;;;;;39.60;20.67;;;;;;;;;;5095511;28;20047;-63
2021/12/03 20:29:02;;;;;;;50.83;26.77;;;;;;;;;;5107781;28;20052;-64
2021/12/03 20:31:33;;;;;;;56.92;30.17;;;;;;;;;;5095630;28;20127;-64
2021/12/03 20:34:11;;;;;;;;;;;4.60;99.90;;;;;;5105160;28;20532;-64
2021/12/03 20:39:39;;;;;;;57.53;30.08;;;;;;;;;;5103041;28;20452;-64
2021/12/03 20:42:10;;;;;;;59.08;29.70;;;;;;;;;;5098830;28;20039;-63
2021/12/03 20:49:59;;;;;;;64.38;29.55;;;;;;;;;;5115701;28;20134;-65
2021/12/03 21:10:52;;;;;;;63.15;30.80;;;;;;;;;;5099181;28;20057;-63
2021/12/03 21:13:26;;;;;;;64.03;30.17;;;;;;;;;;5097769;28;20043;-63
2021/12/03 21:18:34;;;;;;;60.83;30.25;;;;;;;;;;5099867;28;20139;-64
2021/12/03 21:21:05;;;;;;;60.53;28.88;;;;;;;;;;5079085;28;20128;-64
2021/12/03 21:23:35;;;;;;;57.40;28.85;;;;;;;;;;5113543;28;20092;-63
2021/12/03 21:26:01;;;;;;;55.65;27.10;;;;;;;;;;5096919;28;20352;-64
2021/12/03 21:31:04;;;;;;;53.75;25.30;;;;;;;;;;5114163;28;20047;-64
2021/12/03 21:41:27;;;;;;;55.10;28.65;;;;;;;;;;5116035;28;20483;-64
2021/12/03 21:43:53;;;;;;;58.65;29.55;;;;;;;;;;5114019;28;20521;-64
2021/12/03 21:46:24;;;;;;;54.22;27.65;;;;;;;;;;5114955;28;20400;-64
2021/12/03 21:48:50;;;;;;;;;;;4.60;99.90;;;;;;5115370;28;20085;-63
2021/12/03 21:51:17;;;;;;;50.70;24.35;;;;;;;;;;5114937;28;19926;-64
2021/12/03 21:53:43;;;;;;;52.55;25.73;;;;;;;;;;5115792;28;20105;-64
2021/12/03 21:56:10;;;;;;;52.53;26.27;;;;;;;;;;5114415;28;20043;-64
2021/12/03 21:58:36;;;;;;;50.83;24.02;;;;;;;;;;5105725;28;20052;-63
2021/12/03 22:01:02;;;;;;;51.28;25.63;;;;;;;;;;5095858;28;20040;-63
2021/12/03 22:03:28;;;;;;;50.03;25.02;;;;;;;;;;5100284;28;20052;-64
2021/12/03 22:05:54;;;;;;;46.42;24.23;;;;;;;;;;5115223;28;20198;-64
2021/12/03 22:08:20;;;;;;;47.10;25.63;;;;;;;;;;5114571;28;20476;-64
2021/12/03 22:10:46;;;;;;;51.47;24.50;;;;;;;;;;5094571;28;20143;-64
2021/12/03 22:13:12;;;;;;;52.33;26.48;;;;;;;;;;5094836;28;20052;-64
2021/12/03 22:15:39;;;;;;;48.92;25.92;;;;;;;;;;5094371;28;20047;-64
2021/12/03 22:18:05;;;;;;;46.45;23.23;;;;;;;;;;5093714;28;20078;-64
2021/12/03 22:20:31;;;;;;;52.55;26.85;;;;;;;;;;5111267;28;20043;-64
2021/12/03 22:22:57;;;;;;;51.83;25.67;;;;;;;;;;5114294;28;20097;-64
2021/12/03 22:25:23;;;;;;;46.38;24.20;;;;;;;;;;5111274;28;20035;-64
2021/12/03 22:27:49;;;;;;;47.05;24.45;;;;;;;;;;5114412;28;20047;-64
2021/12/03 22:30:15;;;;;;;50.38;24.38;;;;;;;;;;5096606;28;20134;-64
2021/12/03 22:32:41;;;;;;;51.08;25.67;;;;;;;;;;5114130;28;20096;-64
2021/12/03 22:35:07;;;;;;;51.65;25.35;;;;;;;;;;5115053;28;20047;-64